Time;durP1;ratioP1;P1;durP2;ratioP2;P2;SDS_P1;SDS_P2;PMS_P1;PMS_P2;Temp;Humidity;BMP_temperature;BMP_pressure;BME280_temperature;BME280_humidity;BME280_pressure;Samples;Min_cycle;Max_cycle;Signal;HPM_P1;HPM_P2
2022/09/26 04:32:05;;;;;;;;;0.67;0.00;;;;;;;;5231639;22;45455;-66
2022/09/26 04:34:30;;;;;;;;;1.00;0.00;;;;;;;;5060908;28;45920;-67
2022/09/26 04:36:56;;;;;;;;;1.00;1.00;;;;;;;;5049255;28;45320;-66
2022/09/26 04:39:22;;;;;;;;;1.67;0.00;;;;;;;;5052889;28;45392;-66
2022/09/26 04:41:47;;;;;;;;;0.67;0.67;;;;;;;;5059027;28;45351;-66
2022/09/26 04:44:14;;;;;;;;;2.00;1.00;;;;;;;;5048935;28;45966;-67
2022/09/26 04:46:39;;;;;;;;;1.00;1.00;;;;;;;;5058195;28;45368;-67
2022/09/26 04:49:04;;;;;;;;;2.67;0.00;;;;;;;;5063247;28;45396;-67
2022/09/26 04:51:30;;;;;;;;;1.33;1.33;;;;;;;;5064047;28;45414;-67
2022/09/26 04:53:56;;;;;;;;;1.00;1.00;;;;;;;;5072307;28;45418;-68
2022/09/26 04:56:22;;;;;;;;;2.00;0.67;;;;;;;;5042288;28;45483;-66
2022/09/26 04:58:48;;;;;;;;;2.00;1.33;;;;;;;;5063779;28;45327;-67
2022/09/26 05:01:14;;;;;;;;;2.00;1.00;;;;;;;;5074380;28;45720;-68
2022/09/26 05:03:40;;;;;;;;;2.00;2.00;;;;;;;;5056042;28;45531;-67
2022/09/26 05:06:07;;;;;;;;;1.00;1.00;;;;;;;;5051671;28;45715;-67
2022/09/26 05:08:34;;;;;;;;;1.33;1.33;;;;;;;;5061850;28;45804;-67
2022/09/26 05:11:01;;;;;;;;;1.00;1.00;;;;;;;;5034692;28;45414;-67
2022/09/26 05:13:26;;;;;;;;;1.67;1.00;;;;;;;;5058281;28;46221;-68
2022/09/26 05:15:54;;;;;;;;;1.00;1.00;;;;;;;;5058321;28;45212;-67
2022/09/26 05:18:23;;;;;;;;;2.33;1.00;;;;;;;;5060646;28;45326;-68
2022/09/26 05:20:49;;;;;;;;;0.67;0.67;;;;;;;;5063722;28;45531;-68
2022/09/26 05:26:18;;;;;;;;;0.67;0.67;;;;;;;;5055973;28;46085;-67
2022/09/26 05:26:20;;;;;;;;;1.00;1.00;;;;;;;;5057209;28;45550;-68
2022/09/26 05:28:49;;;;;;;;;0.33;0.33;;;;;;;;5050947;28;45766;-68
2022/09/26 05:31:16;;;;;;;;;0.00;0.00;;;;;;;;5056501;28;45337;-66
2022/09/26 05:33:42;;;;;;;;;0.33;0.33;;;;;;;;5049640;28;46306;-67
2022/09/26 05:36:07;;;;;;;;;1.00;1.00;;;;;;;;5054879;28;45980;-67
2022/09/26 05:38:33;;;;;;;;;3.00;1.67;;;;;;;;5055448;28;45274;-69
2022/09/26 05:40:58;;;;;;;;;0.00;0.00;;;;;;;;5054874;28;45383;-68
2022/09/26 05:43:26;;;;;;;;;1.00;1.00;;;;;;;;5072730;28;45505;-67
2022/09/26 05:45:54;;;;;;;;;1.00;1.00;;;;;;;;5060315;28;45351;-69
2022/09/26 05:48:19;;;;;;;;;1.00;1.00;;;;;;;;5060311;28;46979;-70
2022/09/26 05:50:45;;;;;;;;;3.33;2.00;;;;;;;;5058515;28;45471;-71
2022/09/26 05:53:10;;;;;;;;;3.00;1.00;;;;;;;;5058888;28;47948;-70
2022/09/26 05:55:38;;;;;;;;;3.00;2.00;;;;;;;;5050832;28;45375;-69
2022/09/26 05:58:05;;;;;;;;;2.33;1.00;;;;;;;;5055225;28;45497;-69
2022/09/26 06:00:30;;;;;;;;;3.00;1.33;;;;;;;;5042988;28;45552;-69
2022/09/26 06:02:56;;;;;;;;;1.00;1.00;;;;;;;;5072702;28;46290;-66
2022/09/26 06:05:22;;;;;;;;;1.00;1.00;;;;;;;;5059311;28;45952;-69
2022/09/26 06:07:47;;;;;;;;;2.00;2.00;;;;;;;;5054127;28;45528;-65
2022/09/26 06:10:13;;;;;;;;;1.00;1.00;;;;;;;;5065436;28;45438;-70
2022/09/26 06:12:38;;;;;;;;;1.00;1.00;;;;;;;;5065361;28;45997;-69
2022/09/26 06:15:04;;;;;;;;;2.00;1.33;;;;;;;;5077118;28;45321;-69
2022/09/26 06:17:29;;;;;;;;;2.00;2.00;;;;;;;;5040541;28;46045;-69
2022/09/26 06:19:54;;;;;;;;;3.67;1.00;;;;;;;;5064369;28;45616;-69
2022/09/26 06:22:19;;;;;;;;;0.67;0.67;;;;;;;;5066729;28;46909;-70
2022/09/26 06:24:44;;;;;;;;;1.00;1.00;;;;;;;;5077570;28;45291;-70
2022/09/26 06:27:10;;;;;;;;;1.67;1.00;;;;;;;;5046665;28;45641;-71
2022/09/26 06:29:36;;;;;;;;;1.33;1.33;;;;;;;;5061051;28;45574;-71
2022/09/26 06:32:16;;;;;;;;;3.00;1.00;;;;;;;;5057341;28;45478;-72
2022/09/26 06:34:41;;;;;;;;;1.33;1.00;;;;;;;;5053730;28;45287;-73
2022/09/26 06:37:07;;;;;;;;;3.00;3.00;;;;;;;;5060137;28;45469;-66
2022/09/26 06:39:35;;;;;;;;;2.33;1.00;;;;;;;;5059741;28;45407;-73
2022/09/26 06:42:01;;;;;;;;;1.00;1.00;;;;;;;;5053408;28;46212;-73
2022/09/26 06:44:27;;;;;;;;;2.33;1.33;;;;;;;;5059614;28;45343;-73
2022/09/26 06:46:52;;;;;;;;;1.67;1.00;;;;;;;;5056798;28;45502;-73
2022/09/26 06:49:17;;;;;;;;;2.00;2.00;;;;;;;;5055216;28;45530;-72
2022/09/26 06:51:42;;;;;;;;;3.33;1.33;;;;;;;;5044695;28;47180;-73
2022/09/26 06:54:09;;;;;;;;;2.00;2.00;;;;;;;;5032312;28;45989;-72
2022/09/26 06:56:34;;;;;;;;;2.67;1.00;;;;;;;;5064132;28;45532;-72
2022/09/26 06:58:59;;;;;;;;;6.33;3.00;;;;;;;;5052385;28;45358;-72
2022/09/26 07:01:24;;;;;;;;;1.00;1.00;;;;;;;;5048689;28;46015;-72
2022/09/26 07:03:49;;;;;;;;;2.33;2.33;;;;;;;;5053727;28;45354;-72
2022/09/26 07:06:16;;;;;;;;;3.67;2.00;;;;;;;;5058360;28;45347;-73
2022/09/26 07:08:41;;;;;;;;;2.00;0.00;;;;;;;;5055926;28;45287;-71
2022/09/26 07:11:06;;;;;;;;;2.00;1.00;;;;;;;;5058227;28;45322;-75
2022/09/26 07:13:34;;;;;;;;;1.00;1.00;;;;;;;;5045594;28;45269;-73
2022/09/26 07:15:59;;;;;;;;;2.33;1.00;;;;;;;;5057624;28;45320;-73
2022/09/26 07:18:24;;;;;;;;;2.00;2.00;;;;;;;;5053469;28;46614;-73
2022/09/26 07:20:52;;;;;;;;;1.33;1.00;;;;;;;;5058138;28;45375;-72
2022/09/26 07:23:17;;;;;;;;;4.00;1.00;;;;;;;;5056940;28;45430;-72
2022/09/26 07:25:45;;;;;;;;;2.00;1.00;;;;;;;;5048889;28;45819;-72
2022/09/26 07:28:11;;;;;;;;;1.00;1.00;;;;;;;;5055318;28;45382;-72
2022/09/26 07:30:36;;;;;;;;;2.00;2.00;;;;;;;;5055679;28;46190;-73
2022/09/26 07:33:02;;;;;;;;;0.33;0.33;;;;;;;;5055556;28;45439;-73
2022/09/26 07:35:31;;;;;;;;;1.00;1.00;;;;;;;;5050721;28;46055;-72
2022/09/26 07:37:57;;;;;;;;;1.33;1.33;;;;;;;;5051263;28;45509;-72
2022/09/26 07:40:23;;;;;;;;;1.67;1.67;;;;;;;;5050559;28;46254;-72
2022/09/26 07:42:48;;;;;;;;;1.67;1.67;;;;;;;;5052868;28;45352;-72
2022/09/26 07:45:14;;;;;;;;;0.00;0.00;;;;;;;;5054329;28;45377;-72
2022/09/26 07:50:23;;;;;;;;;1.67;1.67;;;;;;;;5055752;28;46010;-73
2022/09/26 07:52:49;;;;;;;;;2.00;2.00;;;;;;;;5051291;28;45370;-73
2022/09/26 07:55:16;;;;;;;;;0.67;0.67;;;;;;;;5051539;28;45328;-73
2022/09/26 07:57:41;;;;;;;;;1.67;1.67;;;;;;;;5051239;28;45501;-73
2022/09/26 08:00:11;;;;;;;;;1.00;1.00;;;;;;;;5056203;28;45474;-71
2022/09/26 08:02:38;;;;;;;;;1.67;1.67;;;;;;;;5049019;28;45375;-71
2022/09/26 08:05:04;;;;;;;;;2.67;0.67;;;;;;;;5061732;28;45398;-72
2022/09/26 08:07:30;;;;;;;;;1.33;1.33;;;;;;;;5051838;28;45567;-72
2022/09/26 08:09:56;;;;;;;;;0.67;0.67;;;;;;;;5055428;28;47169;-72
2022/09/26 08:12:21;;;;;;;;;0.33;0.33;;;;;;;;5054986;28;45428;-72
2022/09/26 08:14:50;;;;;;;;;1.00;1.00;;;;;;;;5057597;28;45409;-71
2022/09/26 08:17:15;;;;;;;;;4.33;0.67;;;;;;;;5054227;28;45832;-72
2022/09/26 08:19:41;;;;;;;;;0.67;0.67;;;;;;;;5055647;28;45520;-72
2022/09/26 08:22:07;;;;;;;;;0.00;0.00;;;;;;;;5055484;28;45377;-72
2022/09/26 08:24:32;;;;;;;;;2.00;0.33;;;;;;;;5056074;28;45475;-72
2022/09/26 08:26:57;;;;;;;;;0.67;0.67;;;;;;;;5047005;28;46044;-72
2022/09/26 08:29:23;;;;;;;;;1.67;1.67;;;;;;;;5052929;28;46146;-71
2022/09/26 08:31:50;;;;;;;;;2.00;1.00;;;;;;;;5054328;28;45300;-65
2022/09/26 08:34:15;;;;;;;;;3.00;1.00;;;;;;;;5053873;28;45383;-65
2022/09/26 08:36:40;;;;;;;;;1.00;1.00;;;;;;;;5052916;28;45723;-65
2022/09/26 08:39:05;;;;;;;;;3.00;1.67;;;;;;;;5054648;28;47046;-65
2022/09/26 08:41:48;;;;;;;;;1.33;1.00;;;;;;;;5054873;28;45537;-65
2022/09/26 08:44:27;;;;;;;;;1.00;0.00;;;;;;;;5054407;28;45452;-65
2022/09/26 08:47:00;;;;;;;;;0.00;0.00;;;;;;;;5053207;28;45545;-65
2022/09/26 08:49:33;;;;;;;;;1.00;1.00;;;;;;;;5054835;28;46015;-64
2022/09/26 08:52:00;;;;;;;;;1.33;1.33;;;;;;;;5053994;28;45300;-65
2022/09/26 08:54:34;;;;;;;;;1.33;1.00;;;;;;;;5053751;28;45445;-65
2022/09/26 08:57:04;;;;;;;;;1.00;1.00;;;;;;;;5043484;28;46579;-65
2022/09/26 08:59:41;;;;;;;;;1.00;1.00;;;;;;;;5052055;28;45921;-65
2022/09/26 09:02:15;;;;;;;;;0.00;0.00;;;;;;;;5053512;28;45480;-63
2022/09/26 09:04:47;;;;;;;;;4.00;0.00;;;;;;;;5048404;28;45313;-64
2022/09/26 09:07:23;;;;;;;;;0.00;0.00;;;;;;;;5060907;28;45621;-64
2022/09/26 09:09:50;;;;;;;;;1.00;1.00;;;;;;;;5053314;28;46897;-64
2022/09/26 09:12:18;;;;;;;;;1.67;1.00;;;;;;;;5059807;28;45354;-64
2022/09/26 09:14:49;;;;;;;;;1.00;1.00;;;;;;;;5060511;28;45440;-65
2022/09/26 09:17:17;;;;;;;;;0.00;0.00;;;;;;;;5049355;28;46659;-64
2022/09/26 09:19:57;;;;;;;;;0.00;0.00;;;;;;;;5059676;28;46333;-63
2022/09/26 09:22:34;;;;;;;;;2.00;2.00;;;;;;;;5060050;28;45311;-65
2022/09/26 09:25:02;;;;;;;;;3.00;1.33;;;;;;;;5059139;28;45465;-64
2022/09/26 09:27:27;;;;;;;;;0.00;0.00;;;;;;;;5059089;28;45498;-64
2022/09/26 09:30:16;;;;;;;;;1.00;1.00;;;;;;;;5059491;28;45994;-65
2022/09/26 09:32:47;;;;;;;;;2.00;1.00;;;;;;;;5060103;28;45225;-65
2022/09/26 09:35:14;;;;;;;;;1.00;1.00;;;;;;;;5058109;28;45495;-65
2022/09/26 09:37:43;;;;;;;;;4.00;1.00;;;;;;;;5057351;28;45379;-66
2022/09/26 09:40:14;;;;;;;;;0.67;0.67;;;;;;;;5057668;28;45342;-65
2022/09/26 09:42:42;;;;;;;;;1.00;1.00;;;;;;;;5057874;28;45726;-65
2022/09/26 09:45:16;;;;;;;;;5.00;0.33;;;;;;;;5051403;28;45327;-64
2022/09/26 09:47:41;;;;;;;;;4.00;1.00;;;;;;;;5052354;28;45419;-65
2022/09/26 09:50:33;;;;;;;;;2.67;1.00;;;;;;;;5053056;28;46342;-65
2022/09/26 09:53:05;;;;;;;;;0.00;0.00;;;;;;;;5049994;28;45466;-65
2022/09/26 09:55:49;;;;;;;;;1.67;1.00;;;;;;;;5051508;28;45715;-64
2022/09/26 09:58:21;;;;;;;;;0.00;0.00;;;;;;;;5050244;28;45613;-64
2022/09/26 10:00:51;;;;;;;;;1.00;1.00;;;;;;;;5056881;28;46230;-64
2022/09/26 10:03:43;;;;;;;;;2.33;2.00;;;;;;;;5049533;28;45284;-65
2022/09/26 10:06:10;;;;;;;;;0.67;0.67;;;;;;;;5046779;28;45523;-66
2022/09/26 10:08:39;;;;;;;;;2.00;1.00;;;;;;;;5053339;28;45414;-64
2022/09/26 10:11:21;;;;;;;;;0.00;0.00;;;;;;;;5046283;28;46199;-64
2022/09/26 10:13:47;;;;;;;;;1.67;1.67;;;;;;;;5052057;28;45479;-65
2022/09/26 10:16:14;;;;;;;;;1.00;1.00;;;;;;;;5051087;28;45354;-65
2022/09/26 10:18:59;;;;;;;;;1.00;1.00;;;;;;;;5054409;28;45483;-65
2022/09/26 10:21:31;;;;;;;;;1.33;1.33;;;;;;;;5051967;28;47096;-64
2022/09/26 10:23:57;;;;;;;;;1.00;1.00;;;;;;;;5050019;28;45528;-65
2022/09/26 10:26:24;;;;;;;;;0.00;0.00;;;;;;;;5058549;28;45308;-65
2022/09/26 10:28:54;;;;;;;;;1.00;1.00;;;;;;;;5040405;28;45474;-64
2022/09/26 10:31:33;;;;;;;;;3.00;2.00;;;;;;;;5053925;28;46136;-65
2022/09/26 10:34:00;;;;;;;;;1.00;1.00;;;;;;;;5052431;28;45426;-64
2022/09/26 10:36:30;;;;;;;;;1.00;1.00;;;;;;;;5057774;28;45377;-64
2022/09/26 10:41:42;;;;;;;;;1.00;1.00;;;;;;;;5056920;28;45532;-64
2022/09/26 10:44:21;;;;;;;;;2.00;1.33;;;;;;;;5035861;28;45442;-64
2022/09/26 10:46:48;;;;;;;;;2.00;2.00;;;;;;;;5052935;28;46041;-64
2022/09/26 10:49:14;;;;;;;;;2.00;2.00;;;;;;;;5055357;28;45713;-64
2022/09/26 10:51:43;;;;;;;;;1.33;1.33;;;;;;;;5057420;28;46432;-64
2022/09/26 10:54:15;;;;;;;;;3.00;3.00;;;;;;;;5054150;28;45449;-65
2022/09/26 10:56:46;;;;;;;;;0.00;0.00;;;;;;;;5052669;28;45527;-64
2022/09/26 10:59:13;;;;;;;;;2.00;2.00;;;;;;;;5057196;28;45292;-65
2022/09/26 11:01:42;;;;;;;;;3.00;2.00;;;;;;;;5049740;28;46091;-64
2022/09/26 11:04:13;;;;;;;;;1.00;1.00;;;;;;;;5059372;28;45507;-64
2022/09/26 11:06:41;;;;;;;;;6.00;4.00;;;;;;;;5059303;28;45333;-64
2022/09/26 11:09:06;;;;;;;;;2.00;1.00;;;;;;;;5053961;28;45351;-65
2022/09/26 11:11:35;;;;;;;;;1.00;1.00;;;;;;;;5055159;28;46096;-64
2022/09/26 11:14:06;;;;;;;;;6.33;1.00;;;;;;;;5046420;28;45325;-64
2022/09/26 11:16:51;;;;;;;;;2.00;1.00;;;;;;;;5051786;28;45578;-64
2022/09/26 11:19:18;;;;;;;;;2.00;2.00;;;;;;;;5054703;28;45532;-64
2022/09/26 11:21:50;;;;;;;;;2.00;2.00;;;;;;;;5047125;28;46227;-65
2022/09/26 11:24:15;;;;;;;;;2.00;2.00;;;;;;;;5051830;28;45312;-65
2022/09/26 11:26:56;;;;;;;;;1.33;1.33;;;;;;;;5050004;28;45488;-65
2022/09/26 11:29:24;;;;;;;;;2.00;1.00;;;;;;;;5051881;28;45534;-65
2022/09/26 11:31:49;;;;;;;;;3.67;2.00;;;;;;;;5044811;28;45768;-64
2022/09/26 11:34:20;;;;;;;;;2.00;2.00;;;;;;;;5043385;28;45430;-64
2022/09/26 11:36:54;;;;;;;;;1.00;1.00;;;;;;;;5054144;28;45429;-64
2022/09/26 11:39:52;;;;;;;;;2.00;2.00;;;;;;;;5055959;28;45344;-65
2022/09/26 11:42:28;;;;;;;;;1.33;1.33;;;;;;;;5004247;28;45337;-63
2022/09/26 11:44:58;;;;;;;;;1.67;1.67;;;;;;;;5041547;28;45309;-64
2022/09/26 11:47:35;;;;;;;;;3.67;2.00;;;;;;;;5051557;28;45430;-63
2022/09/26 11:50:09;;;;;;;;;2.67;2.00;;;;;;;;5048986;28;45580;-63
2022/09/26 11:52:45;;;;;;;;;2.00;1.67;;;;;;;;5049849;28;45457;-63
2022/09/26 11:55:18;;;;;;;;;1.00;1.00;;;;;;;;5046259;28;45288;-63
2022/09/26 11:57:49;;;;;;;;;2.33;2.33;;;;;;;;5051553;28;45359;-63
2022/09/26 12:00:23;;;;;;;;;2.00;1.00;;;;;;;;5048399;28;45710;-63
2022/09/26 12:02:59;;;;;;;;;4.00;2.00;;;;;;;;5056219;28;45426;-63
2022/09/26 12:05:33;;;;;;;;;3.00;1.00;;;;;;;;5054285;28;45605;-63
2022/09/26 12:08:01;;;;;;;;;2.00;1.67;;;;;;;;5054399;28;45386;-63
2022/09/26 12:10:26;;;;;;;;;1.33;1.33;;;;;;;;5057254;28;45536;-63
2022/09/26 12:13:02;;;;;;;;;2.67;2.00;;;;;;;;5053598;28;45492;-63
2022/09/26 12:15:34;;;;;;;;;1.33;1.33;;;;;;;;5053780;28;45409;-63
2022/09/26 12:18:02;;;;;;;;;2.67;1.33;;;;;;;;5056520;28;45461;-63
2022/09/26 12:20:36;;;;;;;;;2.33;2.33;;;;;;;;5056231;28;45422;-63
2022/09/26 12:23:20;;;;;;;;;3.00;1.67;;;;;;;;5047017;28;45514;-63
2022/09/26 12:25:54;;;;;;;;;2.67;2.67;;;;;;;;5054389;28;45590;-64
2022/09/26 12:28:39;;;;;;;;;2.67;2.33;;;;;;;;5056278;28;45277;-64
2022/09/26 12:31:31;;;;;;;;;1.00;1.00;;;;;;;;5043311;28;45290;-63
2022/09/26 12:34:15;;;;;;;;;1.00;1.00;;;;;;;;5052401;28;46351;-64
2022/09/26 12:36:46;;;;;;;;;2.00;2.00;;;;;;;;5060871;28;45427;-64
2022/09/26 12:39:14;;;;;;;;;1.33;1.00;;;;;;;;5054022;28;45459;-63
2022/09/26 12:41:58;;;;;;;;;1.00;1.00;;;;;;;;5057098;28;45566;-64
2022/09/26 12:44:30;;;;;;;;;1.00;1.00;;;;;;;;5052713;28;47343;-64
2022/09/26 12:47:01;;;;;;;;;1.00;1.00;;;;;;;;5055476;28;45236;-64
2022/09/26 12:49:46;;;;;;;;;1.00;1.00;;;;;;;;5053095;28;45426;-63
2022/09/26 12:52:14;;;;;;;;;1.00;1.00;;;;;;;;5052402;28;45458;-63
2022/09/26 12:54:47;;;;;;;;;1.67;1.00;;;;;;;;5053956;28;46381;-64
2022/09/26 12:57:25;;;;;;;;;0.00;0.00;;;;;;;;5054798;28;45747;-63
2022/09/26 13:00:19;;;;;;;;;0.67;0.67;;;;;;;;5056385;28;45264;-63
2022/09/26 13:02:47;;;;;;;;;0.67;0.67;;;;;;;;5051179;28;45545;-64
2022/09/26 13:05:21;;;;;;;;;1.00;1.00;;;;;;;;5055897;28;46364;-63
2022/09/26 13:08:05;;;;;;;;;1.00;1.00;;;;;;;;5056901;28;45654;-64
2022/09/26 13:10:49;;;;;;;;;0.67;0.00;;;;;;;;5057516;28;45413;-64
2022/09/26 13:13:33;;;;;;;;;1.00;1.00;;;;;;;;5059362;28;45226;-64
2022/09/26 13:16:03;;;;;;;;;1.00;1.00;;;;;;;;5059557;28;45649;-64
2022/09/26 13:18:36;;;;;;;;;2.00;0.00;;;;;;;;5059459;28;45365;-64
2022/09/26 13:21:04;;;;;;;;;0.00;0.00;;;;;;;;5056359;28;45374;-63
2022/09/26 13:23:36;;;;;;;;;1.00;1.00;;;;;;;;5060294;28;45433;-64
2022/09/26 13:26:08;;;;;;;;;1.00;1.00;;;;;;;;5058148;28;46187;-64
2022/09/26 13:28:33;;;;;;;;;1.00;1.00;;;;;;;;5059567;28;45438;-64
2022/09/26 13:31:01;;;;;;;;;0.00;0.00;;;;;;;;5050063;28;45254;-64
2022/09/26 13:33:27;;;;;;;;;1.00;1.00;;;;;;;;5056712;28;45582;-64
2022/09/26 13:35:55;;;;;;;;;0.00;0.00;;;;;;;;5042241;28;47236;-64
2022/09/26 13:38:36;;;;;;;;;0.33;0.33;;;;;;;;5058957;28;45521;-64
2022/09/26 13:41:01;;;;;;;;;0.67;0.67;;;;;;;;5055917;28;45432;-64
2022/09/26 13:43:56;;;;;;;;;0.00;0.00;;;;;;;;5056508;28;47043;-64
2022/09/26 13:46:29;;;;;;;;;0.33;0.33;;;;;;;;4972946;28;46282;-63
2022/09/26 13:49:00;;;;;;;;;0.33;0.33;;;;;;;;5054507;28;45692;-62
2022/09/26 13:51:31;;;;;;;;;0.67;0.67;;;;;;;;5049269;28;45691;-63
2022/09/26 13:54:09;;;;;;;;;0.00;0.00;;;;;;;;5055698;28;45300;-63
2022/09/26 13:56:34;;;;;;;;;0.00;0.00;;;;;;;;5051488;28;46168;-62
2022/09/26 13:59:13;;;;;;;;;1.67;0.33;;;;;;;;5054285;28;45324;-64
2022/09/26 14:01:58;;;;;;;;;0.00;0.00;;;;;;;;5054577;28;45449;-63
2022/09/26 14:04:36;;;;;;;;;1.00;1.00;;;;;;;;5051601;28;45453;-62
2022/09/26 14:10:01;;;;;;;;;0.33;0.33;;;;;;;;5059232;28;45283;-63
2022/09/26 14:12:50;;;;;;;;;0.00;0.00;;;;;;;;5060224;28;45327;-63
2022/09/26 14:15:21;;;;;;;;;1.00;1.00;;;;;;;;5046675;28;45701;-61
2022/09/26 14:17:46;;;;;;;;;0.00;0.00;;;;;;;;5057309;28;46023;-64
2022/09/26 14:20:28;;;;;;;;;0.00;0.00;;;;;;;;5052278;28;45473;-63
2022/09/26 14:22:55;;;;;;;;;0.00;0.00;;;;;;;;5059463;28;45461;-64
2022/09/26 14:25:39;;;;;;;;;0.67;0.67;;;;;;;;5056390;28;45429;-64
2022/09/26 14:28:21;;;;;;;;;0.00;0.00;;;;;;;;5053473;28;46037;-64
2022/09/26 14:31:04;;;;;;;;;0.00;0.00;;;;;;;;5055079;28;45665;-63
2022/09/26 14:33:30;;;;;;;;;0.00;0.00;;;;;;;;5058870;28;45402;-63
2022/09/26 14:36:15;;;;;;;;;0.00;0.00;;;;;;;;5057766;28;45763;-63
2022/09/26 14:38:44;;;;;;;;;0.00;0.00;;;;;;;;5056775;28;45875;-64
2022/09/26 14:41:15;;;;;;;;;2.67;0.67;;;;;;;;5058317;28;45661;-63
2022/09/26 14:43:40;;;;;;;;;0.00;0.00;;;;;;;;5046102;28;45419;-63
2022/09/26 14:46:13;;;;;;;;;1.00;1.00;;;;;;;;5054936;28;45445;-63
2022/09/26 14:48:39;;;;;;;;;0.00;0.00;;;;;;;;5049597;28;46098;-64
2022/09/26 14:51:11;;;;;;;;;2.00;1.00;;;;;;;;5057067;28;45559;-63
2022/09/26 14:53:39;;;;;;;;;0.67;0.67;;;;;;;;5056033;28;45540;-64
2022/09/26 14:56:10;;;;;;;;;2.00;2.00;;;;;;;;5056505;28;45618;-64
2022/09/26 14:58:36;;;;;;;;;0.67;0.33;;;;;;;;5054705;28;46002;-64
2022/09/26 15:01:17;;;;;;;;;2.33;1.00;;;;;;;;5058037;28;45378;-65
2022/09/26 15:03:49;;;;;;;;;2.00;0.00;;;;;;;;5052897;28;45403;-64
2022/09/26 15:06:14;;;;;;;;;0.67;0.00;;;;;;;;5050580;28;45590;-64
2022/09/26 15:08:40;;;;;;;;;1.00;1.00;;;;;;;;5056033;28;45331;-64
2022/09/26 15:11:05;;;;;;;;;1.33;1.33;;;;;;;;5057647;28;45527;-63
2022/09/26 15:13:57;;;;;;;;;0.33;0.33;;;;;;;;5048595;28;45288;-64
2022/09/26 15:16:26;;;;;;;;;0.67;0.67;;;;;;;;5048543;28;46040;-64
2022/09/26 15:18:55;;;;;;;;;0.00;0.00;;;;;;;;5039359;28;47510;-64
2022/09/26 15:21:35;;;;;;;;;1.33;0.00;;;;;;;;5058396;28;45754;-64
2022/09/26 15:24:03;;;;;;;;;1.00;1.00;;;;;;;;5053578;28;45453;-63
2022/09/26 15:26:33;;;;;;;;;0.00;0.00;;;;;;;;5056732;28;45236;-63
2022/09/26 15:28:59;;;;;;;;;2.00;0.00;;;;;;;;5043153;28;47482;-64
2022/09/26 15:31:24;;;;;;;;;1.00;0.00;;;;;;;;5042494;28;45549;-64
2022/09/26 15:34:03;;;;;;;;;0.00;0.00;;;;;;;;5052213;28;45314;-64
2022/09/26 15:36:29;;;;;;;;;2.00;1.00;;;;;;;;5044935;28;45589;-63
2022/09/26 15:38:54;;;;;;;;;1.00;0.00;;;;;;;;5040069;28;45442;-63
2022/09/26 15:44:07;;;;;;;;;1.00;0.33;;;;;;;;5055001;28;46613;-63
2022/09/26 15:46:33;;;;;;;;;0.00;0.00;;;;;;;;5047988;28;45471;-64
2022/09/26 15:48:59;;;;;;;;;0.00;0.00;;;;;;;;5045454;28;45977;-63
2022/09/26 15:51:26;;;;;;;;;2.67;1.00;;;;;;;;5051931;28;45600;-63
2022/09/26 15:53:57;;;;;;;;;0.33;0.33;;;;;;;;5047546;28;45437;-63
2022/09/26 15:56:22;;;;;;;;;1.00;1.00;;;;;;;;5047706;28;45430;-63
2022/09/26 15:58:50;;;;;;;;;3.00;0.67;;;;;;;;5041580;28;47118;-64
2022/09/26 16:01:17;;;;;;;;;0.67;0.67;;;;;;;;5053696;28;46358;-62
2022/09/26 16:03:45;;;;;;;;;1.67;1.00;;;;;;;;5048403;28;45350;-64
2022/09/26 16:06:22;;;;;;;;;1.33;1.00;;;;;;;;5048581;28;45336;-65
2022/09/26 16:08:50;;;;;;;;;1.00;1.00;;;;;;;;5050035;28;45566;-63
2022/09/26 16:11:15;;;;;;;;;1.00;0.67;;;;;;;;5033925;28;45717;-64
2022/09/26 16:13:45;;;;;;;;;0.33;0.33;;;;;;;;5052663;28;45336;-63
2022/09/26 16:16:15;;;;;;;;;1.00;1.00;;;;;;;;5042258;28;45604;-64
2022/09/26 16:18:46;;;;;;;;;1.00;1.00;;;;;;;;5049645;28;46315;-65
2022/09/26 16:21:14;;;;;;;;;3.00;0.00;;;;;;;;5058988;28;45370;-65
2022/09/26 16:23:47;;;;;;;;;3.00;3.00;;;;;;;;5060182;28;45306;-65
2022/09/26 16:26:39;;;;;;;;;2.67;1.00;;;;;;;;5056529;28;45521;-66
2022/09/26 16:29:06;;;;;;;;;2.67;1.00;;;;;;;;5061875;28;45554;-65
2022/09/26 16:31:35;;;;;;;;;2.33;1.33;;;;;;;;5063732;28;45421;-64
2022/09/26 16:34:00;;;;;;;;;1.00;1.00;;;;;;;;5063221;28;45528;-64
2022/09/26 16:36:27;;;;;;;;;2.00;2.00;;;;;;;;5056408;28;45355;-64
2022/09/26 16:38:52;;;;;;;;;3.00;1.67;;;;;;;;5060457;28;46465;-65
2022/09/26 16:41:20;;;;;;;;;3.00;2.00;;;;;;;;5061418;28;45402;-65
2022/09/26 16:43:53;;;;;;;;;3.00;2.00;;;;;;;;5061751;28;45525;-65
2022/09/26 16:46:24;;;;;;;;;1.67;1.33;;;;;;;;5059363;28;45681;-64
2022/09/26 16:48:49;;;;;;;;;1.67;1.67;;;;;;;;5054117;28;45520;-65
2022/09/26 16:51:16;;;;;;;;;1.33;1.33;;;;;;;;5058457;28;45359;-65
2022/09/26 16:53:43;;;;;;;;;2.00;2.00;;;;;;;;5051699;28;45509;-65
2022/09/26 16:56:10;;;;;;;;;3.00;3.00;;;;;;;;5048555;28;45365;-65
2022/09/26 16:58:36;;;;;;;;;2.67;2.33;;;;;;;;5058660;28;45458;-64
2022/09/26 17:03:45;;;;;;;;;0.00;0.00;;;;;;;;5054597;28;45715;-66
2022/09/26 17:06:10;;;;;;;;;4.00;3.67;;;;;;;;5053839;28;46165;-64
2022/09/26 17:08:36;;;;;;;;;5.67;3.33;;;;;;;;5047177;28;46036;-65
2022/09/26 17:11:02;;;;;;;;;4.00;4.00;;;;;;;;5054979;28;45482;-65
2022/09/26 17:13:29;;;;;;;;;5.00;4.00;;;;;;;;5061978;28;45521;-64
2022/09/26 17:15:55;;;;;;;;;5.33;4.00;;;;;;;;5057749;28;45478;-64
2022/09/26 17:18:28;;;;;;;;;4.33;4.33;;;;;;;;5045514;28;46393;-64
2022/09/26 17:20:54;;;;;;;;;7.33;3.00;;;;;;;;5046015;28;45570;-64
2022/09/26 17:23:19;;;;;;;;;3.00;3.00;;;;;;;;5047103;28;45389;-64
2022/09/26 17:25:47;;;;;;;;;6.33;5.00;;;;;;;;5056456;28;45458;-64
2022/09/26 17:28:18;;;;;;;;;2.67;2.67;;;;;;;;5052225;28;46993;-65
2022/09/26 17:30:44;;;;;;;;;6.00;4.00;;;;;;;;5053415;28;45479;-63
2022/09/26 17:33:09;;;;;;;;;4.00;4.00;;;;;;;;5064359;28;45552;-64
2022/09/26 17:35:35;;;;;;;;;3.33;3.00;;;;;;;;5050617;28;45763;-64
2022/09/26 17:38:00;;;;;;;;;2.67;2.67;;;;;;;;5051023;28;46113;-64
2022/09/26 17:40:28;;;;;;;;;5.00;4.00;;;;;;;;5051585;28;45453;-65
2022/09/26 17:42:55;;;;;;;;;1.67;1.67;;;;;;;;5052064;28;45691;-65
2022/09/26 17:45:23;;;;;;;;;7.00;3.33;;;;;;;;5047666;28;45523;-65
2022/09/26 17:47:48;;;;;;;;;6.67;3.00;;;;;;;;5049803;28;45895;-64
2022/09/26 17:50:22;;;;;;;;;2.67;2.67;;;;;;;;5051622;28;45764;-64
2022/09/26 17:52:47;;;;;;;;;4.00;2.33;;;;;;;;5050786;28;45462;-65
2022/09/26 17:55:12;;;;;;;;;4.67;4.00;;;;;;;;5051414;28;45233;-65
2022/09/26 17:57:38;;;;;;;;;5.33;3.00;;;;;;;;5050432;28;46047;-65
2022/09/26 18:00:11;;;;;;;;;5.33;2.67;;;;;;;;5055819;28;45216;-65
2022/09/26 18:02:43;;;;;;;;;5.00;4.00;;;;;;;;5050882;28;45477;-65
2022/09/26 18:05:18;;;;;;;;;5.67;4.00;;;;;;;;5050762;28;45309;-65
2022/09/26 18:07:44;;;;;;;;;6.67;3.67;;;;;;;;5043819;28;47122;-65
2022/09/26 18:10:15;;;;;;;;;5.33;4.00;;;;;;;;5055998;28;45576;-64
2022/09/26 18:12:41;;;;;;;;;4.67;2.67;;;;;;;;5057838;28;45489;-66
2022/09/26 18:15:12;;;;;;;;;5.67;2.33;;;;;;;;5053275;28;45543;-64
2022/09/26 18:17:37;;;;;;;;;4.00;3.00;;;;;;;;5052585;28;45561;-65
2022/09/26 18:20:03;;;;;;;;;4.67;3.00;;;;;;;;5046901;28;45433;-65
2022/09/26 18:22:31;;;;;;;;;3.00;2.00;;;;;;;;5049387;28;45339;-65
2022/09/26 18:24:59;;;;;;;;;1.33;1.33;;;;;;;;5048017;28;45308;-65
2022/09/26 18:27:25;;;;;;;;;2.33;1.67;;;;;;;;5047635;28;46457;-64
2022/09/26 18:29:50;;;;;;;;;1.00;1.00;;;;;;;;5043838;28;45404;-65
2022/09/26 18:32:20;;;;;;;;;3.33;2.00;;;;;;;;5054226;28;45585;-65
2022/09/26 18:34:45;;;;;;;;;2.00;1.33;;;;;;;;5046737;28;45486;-65
2022/09/26 18:37:10;;;;;;;;;5.67;2.00;;;;;;;;5054098;28;46100;-65
2022/09/26 18:39:36;;;;;;;;;3.33;1.67;;;;;;;;5047151;28;45955;-65
2022/09/26 18:42:04;;;;;;;;;2.33;2.00;;;;;;;;5048638;28;45811;-64
2022/09/26 18:44:33;;;;;;;;;4.33;2.67;;;;;;;;5053546;28;47972;-64
2022/09/26 18:46:59;;;;;;;;;3.00;1.67;;;;;;;;5061794;28;46441;-64
2022/09/26 18:49:25;;;;;;;;;4.00;4.00;;;;;;;;5059632;28;45364;-62
2022/09/26 18:51:51;;;;;;;;;4.00;3.00;;;;;;;;5060091;28;45803;-63
2022/09/26 18:54:16;;;;;;;;;2.00;2.00;;;;;;;;5059077;28;45251;-64
2022/09/26 18:59:26;;;;;;;;;4.00;3.00;;;;;;;;5055148;28;45291;-68
2022/09/26 19:01:52;;;;;;;;;4.33;2.00;;;;;;;;5056698;28;45638;-67
2022/09/26 19:04:21;;;;;;;;;2.00;2.00;;;;;;;;5055116;28;45380;-67
2022/09/26 19:06:57;;;;;;;;;7.00;3.00;;;;;;;;5058031;28;47144;-67
2022/09/26 19:09:23;;;;;;;;;2.00;2.00;;;;;;;;5052793;28;45429;-67
2022/09/26 19:11:48;;;;;;;;;2.33;2.33;;;;;;;;5064339;28;45235;-67
2022/09/26 19:14:18;;;;;;;;;5.00;3.00;;;;;;;;5059609;28;45433;-66
2022/09/26 19:16:45;;;;;;;;;3.00;2.00;;;;;;;;5060153;28;46484;-67
2022/09/26 19:19:10;;;;;;;;;2.33;2.33;;;;;;;;5055704;28;45411;-65
2022/09/26 19:21:49;;;;;;;;;6.67;3.00;;;;;;;;5052436;28;45418;-66
2022/09/26 19:24:34;;;;;;;;;3.00;3.00;;;;;;;;5049529;28;45837;-66
2022/09/26 19:27:02;;;;;;;;;7.67;4.00;;;;;;;;5037032;28;46198;-66
2022/09/26 19:29:34;;;;;;;;;4.00;3.33;;;;;;;;5053079;28;45781;-66
2022/09/26 19:31:59;;;;;;;;;4.33;4.00;;;;;;;;5050662;28;45465;-65
2022/09/26 19:34:25;;;;;;;;;5.33;4.00;;;;;;;;5053042;28;45402;-66
2022/09/26 19:36:53;;;;;;;;;7.00;4.67;;;;;;;;5053022;28;45430;-66
2022/09/26 19:39:19;;;;;;;;;6.00;5.00;;;;;;;;5042803;28;45576;-66
2022/09/26 19:41:45;;;;;;;;;4.00;4.00;;;;;;;;5046550;28;45381;-65
2022/09/26 19:44:11;;;;;;;;;4.67;4.67;;;;;;;;5057214;28;45326;-65
2022/09/26 19:46:37;;;;;;;;;4.00;4.00;;;;;;;;5029001;28;46944;-64